createdAt,value
2024-03-22T00:01:31.446Z,101882.59
2024-03-22T00:04:03.133Z,101882.79
2024-03-22T00:06:34.694Z,101877.16
2024-03-22T00:09:07.059Z,101879.48
2024-03-22T00:11:38.614Z,101881.02
2024-03-22T00:14:10.806Z,101884.15
2024-03-22T00:16:42.478Z,101885.34
2024-03-22T00:19:14.569Z,101890.05
2024-03-22T00:21:46.158Z,101889.95
2024-03-22T00:24:18.101Z,101886.71
2024-03-22T00:26:49.586Z,101888.46
2024-03-22T00:29:21.150Z,101885.48
2024-03-22T00:31:52.632Z,101878.23
2024-03-22T00:34:24.377Z,101877.11
2024-03-22T00:36:57.153Z,101876.38
2024-03-22T00:39:28.862Z,101877.16
2024-03-22T00:42:00.843Z,101874.26
2024-03-22T00:44:32.724Z,101874.02
2024-03-22T00:47:04.849Z,101873.48
2024-03-22T00:49:37.042Z,101871.66
2024-03-22T00:52:08.905Z,101869.35
2024-03-22T00:54:41.725Z,101868.92
2024-03-22T00:57:13.259Z,101863.77
2024-03-22T00:59:47.186Z,101860.41
2024-03-22T01:02:18.813Z,101853.20
2024-03-22T01:04:50.356Z,101856.20
2024-03-22T01:07:21.859Z,101854.31
2024-03-22T01:09:54.066Z,101847.14
2024-03-22T01:12:25.777Z,101844.98
2024-03-22T01:14:57.986Z,101842.89
2024-03-22T01:17:29.636Z,101836.52
2024-03-22T01:20:01.261Z,101833.31
2024-03-22T01:22:35.742Z,101828.80
2024-03-22T01:25:08.902Z,101822.59
2024-03-22T01:27:40.680Z,101823.11
2024-03-22T01:30:13.708Z,101821.52
2024-03-22T01:32:45.310Z,101819.25
2024-03-22T01:35:17.995Z,101813.35
2024-03-22T01:37:49.950Z,101805.53
2024-03-22T01:40:21.697Z,101807.88
2024-03-22T01:42:57.527Z,101801.77
2024-03-22T01:45:34.014Z,101801.46
2024-03-22T01:48:05.992Z,101794.98
2024-03-22T01:50:38.180Z,101794.27
2024-03-22T01:53:10.386Z,101789.53
2024-03-22T01:55:42.120Z,101788.80
2024-03-22T01:58:14.568Z,101784.89
2024-03-22T02:00:47.108Z,101781.69
2024-03-22T02:03:18.599Z,101781.65
2024-03-22T02:05:50.237Z,101777.27
2024-03-22T02:08:21.888Z,101774.82
2024-03-22T02:10:53.984Z,101771.01
2024-03-22T02:13:25.991Z,101769.96
2024-03-22T02:15:58.613Z,101769.29
2024-03-22T02:18:30.213Z,101764.05
2024-03-22T02:21:01.702Z,101760.22
2024-03-22T02:23:36.184Z,101752.15
2024-03-22T02:26:09.428Z,101749.33
2024-03-22T02:28:41.155Z,101745.08
2024-03-22T02:31:12.712Z,101743.95
2024-03-22T02:33:44.493Z,101738.64
2024-03-22T02:36:16.796Z,101735.83
2024-03-22T02:38:48.684Z,101735.13
2024-03-22T02:41:20.823Z,101729.85
2024-03-22T02:43:52.504Z,101725.34
2024-03-22T02:46:24.034Z,101714.46
2024-03-22T02:48:55.607Z,101703.21
2024-03-22T02:51:27.049Z,101701.43
2024-03-22T02:53:58.695Z,101697.19
2024-03-22T02:56:31.473Z,101698.41
2024-03-22T02:59:02.935Z,101700.27
2024-03-22T03:01:34.682Z,101695.16
2024-03-22T03:04:06.342Z,101693.06
2024-03-22T03:06:37.910Z,101688.00
2024-03-22T03:09:13.209Z,101685.37
2024-03-22T03:11:46.246Z,101681.71
2024-03-22T03:14:18.112Z,101678.02
2024-03-22T03:16:49.676Z,101669.77
2024-03-22T03:19:21.181Z,101663.45
2024-03-22T03:21:52.818Z,101660.13
2024-03-22T03:24:24.340Z,101655.91
2024-03-22T03:26:56.182Z,101648.52
2024-03-22T03:29:27.701Z,101646.35
2024-03-22T03:31:59.377Z,101646.13
2024-03-22T03:34:30.906Z,101641.94
2024-03-22T03:37:02.575Z,101640.74
2024-03-22T03:39:34.154Z,101632.69
2024-03-22T03:42:06.073Z,101629.74
2024-03-22T03:44:37.849Z,101626.63
2024-03-22T03:47:10.288Z,101629.61
2024-03-22T03:49:41.757Z,101618.16
2024-03-22T03:52:13.477Z,101614.82
2024-03-22T03:54:45.185Z,101616.18
2024-03-22T03:57:17.408Z,101611.75
2024-03-22T03:59:48.961Z,101609.48
2024-03-22T04:02:20.611Z,101606.38
2024-03-22T04:04:56.458Z,101605.86
2024-03-22T04:07:26.832Z,101606.05
2024-03-22T04:10:01.418Z,101602.50
2024-03-22T04:12:33.687Z,101600.01
2024-03-22T04:15:05.439Z,101601.73
2024-03-22T04:17:37.287Z,101598.66
2024-03-22T04:20:12.599Z,101591.75
2024-03-22T04:22:44.242Z,101586.45
2024-03-22T04:25:15.919Z,101588.21
2024-03-22T04:27:47.503Z,101590.36
2024-03-22T04:30:19.647Z,101588.59
2024-03-22T04:32:51.329Z,101589.69
2024-03-22T04:35:22.839Z,101585.70
2024-03-22T04:37:54.563Z,101576.41
2024-03-22T04:40:31.511Z,101563.06
2024-03-22T04:43:03.268Z,101558.67
2024-03-22T04:45:34.859Z,101553.73
2024-03-22T04:48:08.390Z,101548.42
2024-03-22T04:50:39.975Z,101542.83
2024-03-22T04:53:11.644Z,101545.85
2024-03-22T04:55:45.934Z,101540.46
2024-03-22T04:58:19.324Z,101545.79
2024-03-22T05:00:51.741Z,101547.27
2024-03-22T05:03:23.253Z,101543.10
2024-03-22T05:05:56.603Z,101542.44
2024-03-22T05:08:28.305Z,101541.75
2024-03-22T05:10:59.907Z,101540.67
2024-03-22T05:13:32.388Z,101536.25
2024-03-22T05:16:04.014Z,101534.29
2024-03-22T05:18:35.810Z,101528.32
2024-03-22T05:21:08.267Z,101523.27
2024-03-22T05:23:39.910Z,101520.48
2024-03-22T05:26:11.581Z,101516.83
2024-03-22T05:28:43.613Z,101507.00
2024-03-22T05:31:15.192Z,101497.91
2024-03-22T05:33:48.056Z,101491.95
2024-03-22T05:36:19.665Z,101489.15
2024-03-22T05:38:51.170Z,101482.63
2024-03-22T05:41:22.655Z,101480.92
2024-03-22T05:43:54.287Z,101474.47
2024-03-22T05:46:26.090Z,101473.10
2024-03-22T05:48:58.173Z,101467.02
2024-03-22T05:51:31.232Z,101463.54
2024-03-22T05:54:04.029Z,101466.22
2024-03-22T05:56:35.780Z,101463.05
2024-03-22T05:59:07.704Z,101455.67
2024-03-22T06:01:41.148Z,101449.34
2024-03-22T06:04:12.764Z,101442.13
2024-03-22T06:06:46.761Z,101430.55
2024-03-22T06:09:25.789Z,101423.55
2024-03-22T06:11:57.390Z,101416.01
2024-03-22T06:14:32.056Z,101422.17
2024-03-22T06:17:05.407Z,101419.86
2024-03-22T06:19:37.437Z,101424.25
2024-03-22T06:22:10.284Z,101420.57
2024-03-22T06:24:42.136Z,101424.81
2024-03-22T06:27:14.789Z,101421.43
2024-03-22T06:29:47.543Z,101416.36
2024-03-22T06:32:19.372Z,101416.20
2024-03-22T06:34:51.007Z,101415.51
2024-03-22T06:37:22.673Z,101413.75
2024-03-22T06:39:54.095Z,101411.48
2024-03-22T06:42:25.685Z,101413.10
2024-03-22T06:44:57.328Z,101409.42
2024-03-22T06:47:29.236Z,101411.88
2024-03-22T06:50:01.391Z,101407.84
2024-03-22T06:52:33.479Z,101403.84
2024-03-22T06:55:05.677Z,101395.42
2024-03-22T06:57:37.199Z,101391.92
2024-03-22T07:00:11.843Z,101390.00
2024-03-22T07:02:43.495Z,101390.87
2024-03-22T07:05:15.035Z,101398.27
2024-03-22T07:07:46.612Z,101399.86
2024-03-22T07:10:18.784Z,101401.48
2024-03-22T07:12:51.830Z,101399.20
2024-03-22T07:15:25.426Z,101398.20
2024-03-22T07:17:57.162Z,101398.42
2024-03-22T07:20:29.345Z,101395.86
2024-03-22T07:23:01.092Z,101394.31
2024-03-22T07:25:32.659Z,101392.44
2024-03-22T07:28:04.661Z,101396.48
2024-03-22T07:30:39.477Z,101389.98
2024-03-22T07:33:14.461Z,101389.85
2024-03-22T07:35:46.899Z,101389.33
2024-03-22T07:38:18.783Z,101391.45
2024-03-22T07:40:50.520Z,101386.92
2024-03-22T07:43:22.188Z,101381.88
2024-03-22T07:45:53.860Z,101379.80
2024-03-22T07:48:25.543Z,101373.88
2024-03-22T07:51:01.347Z,101366.84
2024-03-22T07:53:35.715Z,101367.55
2024-03-22T07:56:08.118Z,101363.68
2024-03-22T07:58:40.151Z,101361.91
2024-03-22T08:01:11.826Z,101352.46
2024-03-22T08:03:43.849Z,101346.50
2024-03-22T08:06:15.835Z,101338.98
2024-03-22T08:08:47.443Z,101339.89
2024-03-22T08:11:19.249Z,101342.00
2024-03-22T08:13:51.309Z,101339.52
2024-03-22T08:16:23.001Z,101343.02
2024-03-22T08:18:54.803Z,101331.41
2024-03-22T08:21:27.576Z,101328.77
2024-03-22T08:23:59.842Z,101328.61
2024-03-22T08:26:31.591Z,101316.85
2024-03-22T08:29:03.351Z,101315.09
2024-03-22T08:31:35.356Z,101317.05
2024-03-22T08:34:09.695Z,101310.56
2024-03-22T08:36:41.460Z,101311.81
2024-03-22T08:39:13.043Z,101318.17
2024-03-22T08:41:45.851Z,101311.66
2024-03-22T08:44:17.523Z,101298.30
2024-03-22T08:46:49.790Z,101288.84
2024-03-22T08:49:21.473Z,101277.79
2024-03-22T08:51:54.599Z,101273.96
2024-03-22T08:54:26.734Z,101278.23
2024-03-22T08:56:58.986Z,101270.89
2024-03-22T08:59:30.655Z,101265.98
2024-03-22T09:02:02.356Z,101264.96
2024-03-22T09:04:34.272Z,101260.22
2024-03-22T09:07:06.444Z,101259.17
2024-03-22T09:09:38.627Z,101256.02
2024-03-22T09:12:11.420Z,101255.70
2024-03-22T09:14:43.323Z,101253.44
2024-03-22T09:17:15.474Z,101244.85
2024-03-22T09:19:47.117Z,101234.66
2024-03-22T09:22:18.840Z,101229.23
2024-03-22T09:24:50.507Z,101221.31
2024-03-22T09:27:22.566Z,101210.93
2024-03-22T09:29:54.912Z,101217.80
2024-03-22T09:32:28.017Z,101222.88
2024-03-22T09:34:59.777Z,101225.70
2024-03-22T09:37:31.458Z,101225.90
2024-03-22T09:40:08.550Z,101227.33
2024-03-22T09:42:42.937Z,101220.85
2024-03-22T09:45:15.024Z,101213.48
2024-03-22T09:47:47.809Z,101208.91
2024-03-22T09:50:19.895Z,101213.66
2024-03-22T09:52:54.333Z,101218.48
2024-03-22T09:55:27.296Z,101217.26
2024-03-22T09:57:59.137Z,101220.45
2024-03-22T10:00:32.704Z,101217.66
2024-03-22T10:03:06.132Z,101212.77
2024-03-22T10:05:38.102Z,101206.29
2024-03-22T10:08:10.618Z,101202.80
2024-03-22T10:10:44.055Z,101200.02
2024-03-22T10:13:17.109Z,101194.75
2024-03-22T10:15:49.979Z,101189.13
2024-03-22T10:18:23.022Z,101187.38
2024-03-22T10:21:05.070Z,101181.77
2024-03-22T10:23:36.744Z,101178.98
2024-03-22T10:26:11.417Z,101167.91
2024-03-22T10:28:48.537Z,101160.88
2024-03-22T10:31:22.680Z,101159.67
2024-03-22T10:33:56.685Z,101159.69
2024-03-22T10:36:32.305Z,101160.77
2024-03-22T10:39:06.217Z,101162.89
2024-03-22T10:41:38.057Z,101154.77
2024-03-22T10:44:10.584Z,101159.00
2024-03-22T10:46:48.485Z,101155.13
2024-03-22T10:49:21.839Z,101147.05
2024-03-22T10:51:56.724Z,101144.78
2024-03-22T10:54:33.189Z,101131.57
2024-03-22T10:57:07.074Z,101123.14
2024-03-22T10:59:38.962Z,101117.50
2024-03-22T11:02:14.749Z,101117.17
2024-03-22T11:04:55.489Z,101113.83
2024-03-22T11:07:30.588Z,101110.49
2024-03-22T11:10:07.447Z,101104.85
2024-03-22T11:12:41.473Z,101105.05
2024-03-22T11:15:14.350Z,101098.36
2024-03-22T11:17:46.339Z,101099.78
2024-03-22T11:20:18.019Z,101091.67
2024-03-22T11:22:49.674Z,101083.55
2024-03-22T11:25:21.510Z,101072.98
2024-03-22T11:27:53.328Z,101071.03
2024-03-22T11:30:27.749Z,101072.09
2024-03-22T11:32:59.887Z,101065.38
2024-03-22T11:35:31.751Z,101058.50
2024-03-22T11:38:05.938Z,101046.69
2024-03-22T11:40:38.193Z,101053.04
2024-03-22T11:43:11.005Z,101051.98
2024-03-22T11:45:44.280Z,101053.39
2024-03-22T11:48:16.043Z,101053.38
2024-03-22T11:50:49.609Z,101045.80
2024-03-22T11:53:21.377Z,101041.92
2024-03-22T11:55:54.089Z,101041.94
2024-03-22T11:58:27.561Z,101047.40
2024-03-22T12:01:12.486Z,101043.70
2024-03-22T12:03:51.598Z,101042.45
2024-03-22T12:06:24.216Z,101044.05
2024-03-22T12:08:55.903Z,101040.86
2024-03-22T12:11:28.073Z,101035.39
2024-03-22T12:13:59.951Z,101035.40
2024-03-22T12:16:31.570Z,101036.63
2024-03-22T12:19:04.509Z,101033.11
2024-03-22T12:21:39.178Z,101030.27
2024-03-22T12:24:10.969Z,101026.95
2024-03-22T12:26:44.980Z,101021.48
2024-03-22T12:29:19.397Z,101010.17
2024-03-22T12:31:51.642Z,100997.29
2024-03-22T12:34:23.264Z,100994.27
2024-03-22T12:36:55.237Z,100987.55
2024-03-22T12:39:27.503Z,100984.19
2024-03-22T12:41:59.196Z,100982.92
2024-03-22T12:44:30.866Z,100987.51
2024-03-22T12:47:03.164Z,100977.09
2024-03-22T12:49:34.762Z,100968.41
2024-03-22T12:52:07.816Z,100970.17
2024-03-22T12:54:39.336Z,100964.00
2024-03-22T12:57:12.122Z,100965.25
2024-03-22T12:59:44.069Z,100962.27
2024-03-22T13:02:18.259Z,100962.97
2024-03-22T13:04:50.803Z,100955.38
2024-03-22T13:07:24.404Z,100958.20
2024-03-22T13:09:56.299Z,100953.97
2024-03-22T13:12:27.860Z,100953.27
2024-03-22T13:15:12.407Z,100948.33
2024-03-22T13:17:48.282Z,100943.21
2024-03-22T13:20:20.143Z,100938.80
2024-03-22T13:22:52.010Z,100940.39
2024-03-22T13:25:23.666Z,100937.91
2024-03-22T13:27:55.303Z,100940.93
2024-03-22T13:30:28.289Z,100938.46
2024-03-22T13:33:00.314Z,100938.80
2024-03-22T13:35:32.017Z,100939.69
2024-03-22T13:38:03.610Z,100938.80
2024-03-22T13:40:35.081Z,100932.80
2024-03-22T13:43:06.835Z,100933.86
2024-03-22T13:45:45.945Z,100929.08
2024-03-22T13:48:17.503Z,100928.20
2024-03-22T13:50:49.953Z,100929.97
2024-03-22T13:53:23.030Z,100926.27
2024-03-22T13:55:55.751Z,100927.34
2024-03-22T13:58:28.374Z,100931.05
2024-03-22T14:01:00.041Z,100929.11
2024-03-22T14:03:31.974Z,100922.58
2024-03-22T14:06:04.962Z,100917.29
2024-03-22T14:08:37.066Z,100917.14
2024-03-22T14:11:08.742Z,100908.31
2024-03-22T14:13:40.512Z,100907.42
2024-03-22T14:16:12.471Z,100901.08
2024-03-22T14:18:44.095Z,100894.72
2024-03-22T14:21:20.145Z,100894.91
2024-03-22T14:23:52.434Z,100888.91
2024-03-22T14:26:24.697Z,100884.15
2024-03-22T14:28:56.321Z,100882.75
2024-03-22T14:31:28.025Z,100884.16
2024-03-22T14:34:00.699Z,100886.98
2024-03-22T14:36:32.467Z,100886.09
2024-03-22T14:39:06.460Z,100884.15
2024-03-22T14:41:39.350Z,100882.55
2024-03-22T14:44:10.874Z,100877.96
2024-03-22T14:46:42.479Z,100875.50
2024-03-22T14:49:14.194Z,100874.08
2024-03-22T14:51:45.953Z,100870.90
2024-03-22T14:54:19.076Z,100870.19
2024-03-22T14:56:50.691Z,100865.95
2024-03-22T14:59:22.373Z,100862.61
2024-03-22T15:01:55.331Z,100860.30
2024-03-22T15:04:27.384Z,100860.31
2024-03-22T15:06:58.987Z,100863.50
2024-03-22T15:09:30.732Z,100856.80
2024-03-22T15:12:02.466Z,100850.96
2024-03-22T15:14:34.075Z,100852.39
2024-03-22T15:17:05.794Z,100847.77
2024-03-22T15:19:37.453Z,100844.95
2024-03-22T15:22:10.121Z,100844.95
2024-03-22T15:24:43.231Z,100848.30
2024-03-22T15:27:15.393Z,100852.02
2024-03-22T15:29:47.680Z,100846.57
2024-03-22T15:32:21.148Z,100844.80
2024-03-22T15:34:53.274Z,100846.40
2024-03-22T15:37:25.391Z,100846.92
2024-03-22T15:39:57.425Z,100844.46
2024-03-22T15:42:29.180Z,100845.72
2024-03-22T15:45:04.881Z,100845.72
2024-03-22T15:47:35.151Z,100843.08
2024-03-22T15:50:08.348Z,100835.15
2024-03-22T15:52:40.511Z,100834.25
2024-03-22T15:55:13.003Z,100829.48
2024-03-22T15:57:45.762Z,100826.66
2024-03-22T16:00:21.066Z,100818.20
2024-03-22T16:02:52.852Z,100820.14
2024-03-22T16:05:24.672Z,100821.02
2024-03-22T16:07:56.727Z,100825.45
2024-03-22T16:10:28.958Z,100819.45
2024-03-22T16:13:00.642Z,100817.35
2024-03-22T16:15:32.699Z,100821.92
2024-03-22T16:18:04.681Z,100823.00
2024-03-22T16:20:36.721Z,100820.35
2024-03-22T16:23:09.218Z,100815.75
2024-03-22T16:25:41.326Z,100819.46
2024-03-22T16:28:13.060Z,100818.41
2024-03-22T16:30:44.846Z,100818.58
2024-03-22T16:33:16.760Z,100819.63
2024-03-22T16:35:48.492Z,100819.44
2024-03-22T16:38:20.300Z,100813.44
2024-03-22T16:40:52.174Z,100819.08
2024-03-22T16:43:23.767Z,100820.51
2024-03-22T16:45:55.693Z,100821.41
2024-03-22T16:48:27.167Z,100820.34
2024-03-22T16:51:00.644Z,100821.05
2024-03-22T16:53:32.883Z,100821.23
2024-03-22T16:56:04.548Z,100818.25
2024-03-22T16:58:36.526Z,100821.23
2024-03-22T17:01:09.562Z,100818.77
2024-03-22T17:03:43.429Z,100816.66
2024-03-22T17:06:21.424Z,100816.50
2024-03-22T17:08:55.972Z,100821.09
2024-03-22T17:11:27.560Z,100820.73
2024-03-22T17:13:59.249Z,100817.04
2024-03-22T17:16:31.006Z,100813.35
2024-03-22T17:19:02.491Z,100816.70
2024-03-22T17:21:34.167Z,100821.98
2024-03-22T17:24:06.486Z,100825.69
2024-03-22T17:26:41.561Z,100823.04
2024-03-22T17:29:13.335Z,100819.33
2024-03-22T17:31:44.864Z,100822.52
2024-03-22T17:34:16.439Z,100815.11
2024-03-22T17:36:48.054Z,100819.86
2024-03-22T17:39:20.004Z,100816.16
2024-03-22T17:41:51.550Z,100819.88
2024-03-22T17:44:23.310Z,100814.75
2024-03-22T17:46:54.928Z,100816.16
2024-03-22T17:49:26.573Z,100818.09
2024-03-22T17:51:58.131Z,100815.63
2024-03-22T17:54:30.270Z,100814.21
2024-03-22T17:57:01.913Z,100814.20
2024-03-22T17:59:33.791Z,100817.90
2024-03-22T18:02:05.869Z,100815.42
2024-03-22T18:04:38.105Z,100816.13
2024-03-22T18:07:13.217Z,100813.84
2024-03-22T18:09:45.177Z,100816.31
2024-03-22T18:12:16.767Z,100808.55
2024-03-22T18:14:48.517Z,100805.91
2024-03-22T18:17:20.022Z,100801.33
2024-03-22T18:19:51.534Z,100800.80
2024-03-22T18:22:23.236Z,100801.31
2024-03-22T18:24:54.818Z,100795.69
2024-03-22T18:27:26.967Z,100799.40
2024-03-22T18:29:58.546Z,100808.42
2024-03-22T18:32:30.094Z,100804.89
2024-03-22T18:35:01.838Z,100807.17
2024-03-22T18:37:33.475Z,100810.70
2024-03-22T18:40:05.350Z,100811.58
2024-03-22T18:42:37.019Z,100808.06
2024-03-22T18:45:09.370Z,100801.17
2024-03-22T18:47:41.327Z,100805.75
2024-03-22T18:50:13.199Z,100800.12
2024-03-22T18:52:44.769Z,100803.46
2024-03-22T18:55:16.474Z,100800.64
2024-03-22T18:57:48.010Z,100790.22
2024-03-22T19:00:20.708Z,100781.40
2024-03-22T19:02:52.903Z,100779.27
2024-03-22T19:05:24.680Z,100781.91
2024-03-22T19:07:56.829Z,100788.96
2024-03-22T19:10:29.005Z,100794.62
2024-03-22T19:13:00.548Z,100792.32
2024-03-22T19:15:32.164Z,100795.85
2024-03-22T19:18:05.092Z,100792.67
2024-03-22T19:20:36.654Z,100787.91
2024-03-22T19:23:08.723Z,100789.34
2024-03-22T19:25:40.320Z,100790.75
2024-03-22T19:28:12.112Z,100791.98
2024-03-22T19:30:43.778Z,100794.45
2024-03-22T19:33:16.592Z,100788.98
2024-03-22T19:35:48.271Z,100790.20
2024-03-22T19:38:19.797Z,100782.45
2024-03-22T19:40:51.321Z,100768.19
2024-03-22T19:43:23.809Z,100763.61
2024-03-22T19:45:56.200Z,100783.36
2024-03-22T19:48:27.853Z,100785.29
2024-03-22T19:50:59.562Z,100778.07
2024-03-22T19:53:31.318Z,100768.38
2024-03-22T19:56:02.927Z,100771.90
2024-03-22T19:58:34.526Z,100774.02
2024-03-22T20:01:06.285Z,100775.63
2024-03-22T20:03:37.761Z,100781.10
2024-03-22T20:06:09.584Z,100779.88
2024-03-22T20:08:41.116Z,100774.22
2024-03-22T20:11:12.961Z,100771.02
2024-03-22T20:13:44.654Z,100765.91
2024-03-22T20:16:16.278Z,100766.95
2024-03-22T20:18:48.573Z,100773.85
2024-03-22T20:21:20.134Z,100771.73
2024-03-22T20:23:51.558Z,100774.73
2024-03-22T20:26:23.668Z,100775.59
2024-03-22T20:28:57.969Z,100774.00
2024-03-22T20:31:29.624Z,100771.55
2024-03-22T20:34:01.180Z,100769.79
2024-03-22T20:36:32.672Z,100771.73
2024-03-22T20:39:07.972Z,100772.62
2024-03-22T20:41:40.034Z,100768.91
2024-03-22T20:44:13.911Z,100778.79
2024-03-22T20:46:45.473Z,100777.19
2024-03-22T20:49:17.122Z,100772.05
2024-03-22T20:51:52.823Z,100774.19
2024-03-22T20:54:24.257Z,100775.95
2024-03-22T20:56:55.683Z,100777.02
2024-03-22T20:59:27.216Z,100774.58
2024-03-22T21:01:58.801Z,100773.86
2024-03-22T21:04:30.310Z,100772.45
2024-03-22T21:07:02.327Z,100770.87
2024-03-22T21:09:33.785Z,100771.40
2024-03-22T21:12:05.282Z,100777.04
2024-03-22T21:14:36.777Z,100772.11
2024-03-22T21:17:08.375Z,100773.71
2024-03-22T21:19:40.406Z,100771.09
2024-03-22T21:22:11.950Z,100771.97
2024-03-22T21:24:43.425Z,100768.09
2024-03-22T21:27:15.096Z,100761.40
2024-03-22T21:29:46.732Z,100764.05
2024-03-22T21:32:18.241Z,100760.73
2024-03-22T21:34:49.986Z,100750.70
2024-03-22T21:37:21.492Z,100749.46
2024-03-22T21:39:53.861Z,100751.08
2024-03-22T21:42:26.402Z,100747.75
2024-03-22T21:44:58.001Z,100743.89
2024-03-22T21:47:29.441Z,100744.42
2024-03-22T21:50:00.849Z,100745.50
2024-03-22T21:52:32.397Z,100749.90
2024-03-22T21:55:04.417Z,100744.27
2024-03-22T21:57:36.035Z,100743.73
2024-03-22T22:00:08.101Z,100737.23
2024-03-22T22:02:39.644Z,100732.46
2024-03-22T22:05:11.174Z,100733.18
2024-03-22T22:07:42.725Z,100738.65
2024-03-22T22:10:14.712Z,100734.09
2024-03-22T22:12:46.176Z,100731.10
2024-03-22T22:15:17.800Z,100723.69
2024-03-22T22:17:53.084Z,100720.18
2024-03-22T22:20:24.645Z,100710.30
2024-03-22T22:22:56.288Z,100714.70
2024-03-22T22:25:27.748Z,100712.23
2024-03-22T22:27:59.267Z,100710.83
2024-03-22T22:30:31.070Z,100708.52
2024-03-22T22:33:02.645Z,100715.92
2024-03-22T22:35:34.313Z,100715.92
2024-03-22T22:38:07.764Z,100718.21
2024-03-22T22:40:39.459Z,100708.70
2024-03-22T22:43:11.051Z,100706.93
2024-03-22T22:45:42.703Z,100704.64
2024-03-22T22:48:14.573Z,100694.61
2024-03-22T22:50:46.210Z,100690.57
2024-03-22T22:53:17.773Z,100693.02
2024-03-22T22:55:50.135Z,100691.78
2024-03-22T22:58:21.808Z,100688.77
2024-03-22T23:00:53.733Z,100686.66
2024-03-22T23:03:25.592Z,100689.13
2024-03-22T23:05:57.289Z,100680.34
2024-03-22T23:08:28.726Z,100679.27
2024-03-22T23:11:00.357Z,100678.06
2024-03-22T23:13:32.057Z,100672.96
2024-03-22T23:16:05.417Z,100669.98
2024-03-22T23:18:37.028Z,100673.52
2024-03-22T23:21:10.735Z,100677.92
2024-03-22T23:23:42.289Z,100681.63
2024-03-22T23:26:14.171Z,100685.50
2024-03-22T23:28:45.722Z,100681.98
2024-03-22T23:31:17.483Z,100684.29
2024-03-22T23:33:49.168Z,100683.58
2024-03-22T23:36:20.973Z,100683.05
2024-03-22T23:38:52.743Z,100681.83
2024-03-22T23:41:24.247Z,100674.60
2024-03-22T23:43:55.885Z,100675.13
2024-03-22T23:46:28.391Z,100675.30
2024-03-22T23:49:01.271Z,100678.84
2024-03-22T23:51:33.089Z,100672.15
2024-03-22T23:54:04.936Z,100672.15
2024-03-22T23:56:40.150Z,100673.35
2024-03-22T23:59:14.359Z,100678.98
